M/V Oriole — WDE6982 — position and weather

sailwx.info

Track history (hours):
 
Tides and Currents Weather Stations Pressure Air Temp Water Temp Dewpoint Dewpoint Depression Visibility Wind Speed Wind Dir Waves Ship Positions

M/V Oriole

Owner: NATIVE SON INC., ST. THOMAS, VI. More information available from US FCC via Universal Licensing System and Coast Guard Vessel Documentation Center.

Last reported at 2015-Sep-01 22:16 UTC. Time now 2015-Sep-02 00:25 UTC.
Position N 18°25' W 064°37'.

Length 25 m.

Type: Passenger vessel. MMSI: 366755670.

Date/timePositionNaut miles runAvg speedWind from/ knotsBaromVisibWave heightAir tempDewpointWater temp
2015-Sep-01 22:16N 18°25' W 064°37'912.1
2015-Sep-01 21:33N 18°22' W 064°45'1 1.2
2015-Sep-01 20:33N 18°22' W 064°47'2 2.2
2015-Sep-01 19:33N 18°21' W 064°49'2 0.8
2015-Sep-01 17:30N 18°20' W 064°50'8 8.5
2015-Sep-01 16:32N 18°23' W 064°42'6 2.0
2015-Sep-01 13:23N 18°20' W 064°48'2 2.3
2015-Sep-01 12:33N 18°22' W 064°47'2 1.6
2015-Sep-01 11:19N 18°20' W 064°48'6 8.0
2015-Sep-01 10:33N 18°23' W 064°42'4 0.3
2015-Aug-31 22:27N 18°24' W 064°38'10 5.2
2015-Aug-31 20:33N 18°20' W 064°48'1 1.2
2015-Aug-31 19:33N 18°21' W 064°48'2 1.0
2015-Aug-31 17:25N 18°20' W 064°50'8 8.6
2015-Aug-31 16:29N 18°23' W 064°42'7 2.5
2015-Aug-31 13:33N 18°20' W 064°49'6 6.2
2015-Aug-31 12:33N 18°23' W 064°43'5 3.8
2015-Aug-31 11:13N 18°20' W 064°48'6 8.7
2015-Aug-31 10:32N 18°23' W 064°42'3 0.2
2015-Aug-30 19:05N 18°23' W 064°39'916.6
2015-Aug-30 18:33N 18°21' W 064°48'1 0.8
2015-Aug-30 17:08N 18°20' W 064°49'711.2
2015-Aug-30 16:30N 18°23' W 064°42'6 2.1
2015-Aug-30 13:32N 18°20' W 064°48'4 3.9
2015-Aug-30 12:33N 18°23' W 064°45'4 3.8
2015-Aug-30 11:32N 18°20' W 064°48'6 6.3
2015-Aug-30 10:33N 18°23' W 064°42'4 0.4
2015-Aug-29 23:33N 18°22' W 064°47'4 4.3
2015-Aug-29 22:31N 18°23' W 064°42'0 0.1
2015-Aug-29 20:13N 18°23' W 064°42'5 8.1
2015-Aug-29 19:33N 18°21' W 064°48'3 1.4
2015-Aug-29 17:28N 18°20' W 064°50'8 8.6
2015-Aug-29 16:28N 18°23' W 064°42'8 3.2
2015-Aug-29 14:04N 18°20' W 064°50'4 6.6
2015-Aug-29 13:30N 18°22' W 064°46'  
2015-Aug-26 20:26N 18°23' W 064°39'9 3.1
2015-Aug-26 17:31N 18°20' W 064°48'6 5.9
2015-Aug-26 16:28N 18°23' W 064°42'6 2.1
2015-Aug-26 13:33N 18°20' W 064°48'1 1.2
2015-Aug-26 12:22N 18°21' W 064°49'1 1.7
2015-Aug-26 11:31N 18°20' W 064°48'7 6.9
2015-Aug-26 10:32N 18°23' W 064°41'1 0.1
2015-Aug-25 19:33N 18°23' W 064°42'8 1.5
2015-Aug-25 14:18N 18°19' W 064°50'8 0.5
2015-Aug-24 21:33N 18°23' W 064°42'6 5.6
2015-Aug-24 20:27N 18°20' W 064°48'3 3.7
2015-Aug-24 19:32N 18°22' W 064°45'5 2.4
2015-Aug-24 17:23N 18°20' W 064°50'8 9.5
2015-Aug-24 16:31N 18°23' W 064°42'8 2.5
2015-Aug-24 13:13N 18°20' W 064°50'810.7
2015-Aug-24 12:27N 18°23' W 064°42'8 9.1
2015-Aug-24 11:32N 18°20' W 064°50'8 8.5
2015-Aug-24 10:33N 18°23' W 064°42'3 0.2
2015-Aug-23 22:33N 18°23' W 064°39'9 4.3
2015-Aug-23 20:29N 18°20' W 064°48'2 2.7
2015-Aug-23 19:33N 18°22' W 064°46'4 2.0
2015-Aug-23 17:30N 18°20' W 064°50'8 6.5
2015-Aug-23 16:16N 18°23' W 064°42'8 2.8
2015-Aug-23 13:15N 18°20' W 064°50'811.3
2015-Aug-23 12:31N 18°23' W 064°42'6 5.6
2015-Aug-23 11:24N 18°20' W 064°48'6 7.0
2015-Aug-23 10:33N 18°23' W 064°42'3 0.3
2015-Aug-22 22:29N 18°23' W 064°39'  
Track history (hours):
 
Tides and Currents Weather Stations Pressure Air Temp Water Temp Dewpoint Dewpoint Depression Visibility Wind Speed Wind Dir Waves Ship Positions

M/V Oriole

Owner: NATIVE SON INC., ST. THOMAS, VI. More information available from US FCC via Universal Licensing System and Coast Guard Vessel Documentation Center.

Last reported at 2015-Sep-01 22:16 UTC. Time now 2015-Sep-02 00:25 UTC.
Position N 18°25' W 064°37'.

Length 25 m.

Type: Passenger vessel. MMSI: 366755670.

Date/timePositionNaut miles runAvg speedWind from/ knotsBaromVisibWave heightAir tempDewpointWater temp
2015-Sep-01 22:16N 18°25' W 064°37'912.1
2015-Sep-01 21:33N 18°22' W 064°45'1 1.2
2015-Sep-01 20:33N 18°22' W 064°47'2 2.2
2015-Sep-01 19:33N 18°21' W 064°49'2 0.8
2015-Sep-01 17:30N 18°20' W 064°50'8 8.5
2015-Sep-01 16:32N 18°23' W 064°42'6 2.0
2015-Sep-01 13:23N 18°20' W 064°48'2 2.3
2015-Sep-01 12:33N 18°22' W 064°47'2 1.6
2015-Sep-01 11:19N 18°20' W 064°48'6 8.0
2015-Sep-01 10:33N 18°23' W 064°42'4 0.3
2015-Aug-31 22:27N 18°24' W 064°38'10 5.2
2015-Aug-31 20:33N 18°20' W 064°48'1 1.2
2015-Aug-31 19:33N 18°21' W 064°48'2 1.0
2015-Aug-31 17:25N 18°20' W 064°50'8 8.6
2015-Aug-31 16:29N 18°23' W 064°42'7 2.5
2015-Aug-31 13:33N 18°20' W 064°49'6 6.2
2015-Aug-31 12:33N 18°23' W 064°43'5 3.8
2015-Aug-31 11:13N 18°20' W 064°48'6 8.7
2015-Aug-31 10:32N 18°23' W 064°42'3 0.2
2015-Aug-30 19:05N 18°23' W 064°39'916.6
2015-Aug-30 18:33N 18°21' W 064°48'1 0.8
2015-Aug-30 17:08N 18°20' W 064°49'711.2
2015-Aug-30 16:30N 18°23' W 064°42'6 2.1
2015-Aug-30 13:32N 18°20' W 064°48'4 3.9
2015-Aug-30 12:33N 18°23' W 064°45'4 3.8
2015-Aug-30 11:32N 18°20' W 064°48'6 6.3
2015-Aug-30 10:33N 18°23' W 064°42'4 0.4
2015-Aug-29 23:33N 18°22' W 064°47'4 4.3
2015-Aug-29 22:31N 18°23' W 064°42'0 0.1
2015-Aug-29 20:13N 18°23' W 064°42'5 8.1
2015-Aug-29 19:33N 18°21' W 064°48'3 1.4
2015-Aug-29 17:28N 18°20' W 064°50'8 8.6
2015-Aug-29 16:28N 18°23' W 064°42'8 3.2
2015-Aug-29 14:04N 18°20' W 064°50'4 6.6
2015-Aug-29 13:30N 18°22' W 064°46'  
2015-Aug-26 20:26N 18°23' W 064°39'9 3.1
2015-Aug-26 17:31N 18°20' W 064°48'6 5.9
2015-Aug-26 16:28N 18°23' W 064°42'6 2.1
2015-Aug-26 13:33N 18°20' W 064°48'1 1.2
2015-Aug-26 12:22N 18°21' W 064°49'1 1.7
2015-Aug-26 11:31N 18°20' W 064°48'7 6.9
2015-Aug-26 10:32N 18°23' W 064°41'1 0.1
2015-Aug-25 19:33N 18°23' W 064°42'8 1.5
2015-Aug-25 14:18N 18°19' W 064°50'8 0.5
2015-Aug-24 21:33N 18°23' W 064°42'6 5.6
2015-Aug-24 20:27N 18°20' W 064°48'3 3.7
2015-Aug-24 19:32N 18°22' W 064°45'5 2.4
2015-Aug-24 17:23N 18°20' W 064°50'8 9.5
2015-Aug-24 16:31N 18°23' W 064°42'8 2.5
2015-Aug-24 13:13N 18°20' W 064°50'810.7
2015-Aug-24 12:27N 18°23' W 064°42'8 9.1
2015-Aug-24 11:32N 18°20' W 064°50'8 8.5
2015-Aug-24 10:33N 18°23' W 064°42'3 0.2
2015-Aug-23 22:33N 18°23' W 064°39'9 4.3
2015-Aug-23 20:29N 18°20' W 064°48'2 2.7
2015-Aug-23 19:33N 18°22' W 064°46'4 2.0
2015-Aug-23 17:30N 18°20' W 064°50'8 6.5
2015-Aug-23 16:16N 18°23' W 064°42'8 2.8
2015-Aug-23 13:15N 18°20' W 064°50'811.3
2015-Aug-23 12:31N 18°23' W 064°42'6 5.6
2015-Aug-23 11:24N 18°20' W 064°48'6 7.0
2015-Aug-23 10:33N 18°23' W 064°42'3 0.3
2015-Aug-22 22:29N 18°23' W 064°39'  

Dump ship's entire track history